createdAt,value
2022-08-11T00:02:35.169Z,78.81
2022-08-11T00:05:10.355Z,79.95
2022-08-11T00:08:03.629Z,79.60
2022-08-11T00:10:30.861Z,76.38
2022-08-11T00:13:01.062Z,77.81
2022-08-11T00:15:38.491Z,84.13
2022-08-11T00:18:06.957Z,82.79
2022-08-11T00:20:36.955Z,80.74
2022-08-11T00:23:11.749Z,83.65
2022-08-11T00:25:40.960Z,86.81
2022-08-11T00:28:34.535Z,88.06
2022-08-11T00:31:07.215Z,87.20
2022-08-11T00:33:45.992Z,87.15
2022-08-11T00:36:25.295Z,84.53
2022-08-11T00:38:54.151Z,82.93
2022-08-11T00:41:45.231Z,83.35
2022-08-11T00:44:46.146Z,80.53
2022-08-11T00:47:55.867Z,84.58
2022-08-11T00:50:56.014Z,84.83
2022-08-11T00:53:36.682Z,84.23
2022-08-11T00:56:34.327Z,83.97
2022-08-11T00:59:34.371Z,85.03
2022-08-11T01:02:15.557Z,86.20
2022-08-11T01:05:01.375Z,87.55
2022-08-11T01:08:01.457Z,89.10
2022-08-11T01:11:06.159Z,89.77
2022-08-11T01:13:32.731Z,93.94
2022-08-11T01:16:08.955Z,95.94
2022-08-11T01:18:44.676Z,97.22
2022-08-11T01:22:15.660Z,96.21
2022-08-11T01:25:01.133Z,99.45
2022-08-11T01:28:05.601Z,100.00
2022-08-11T01:31:06.436Z,96.57
2022-08-11T01:33:59.465Z,94.31
2022-08-11T01:36:45.043Z,93.84
2022-08-11T01:39:37.571Z,96.72
2022-08-11T01:42:38.561Z,96.79
2022-08-11T01:45:24.051Z,98.89
2022-08-11T01:48:10.949Z,97.07
2022-08-11T01:50:46.334Z,100.00
2022-08-11T01:53:18.184Z,100.00
2022-08-11T01:55:59.823Z,100.00
2022-08-11T01:58:43.507Z,100.00
2022-08-11T02:01:28.601Z,100.00
2022-08-11T02:04:08.132Z,100.00
2022-08-11T02:06:57.020Z,100.00
2022-08-11T02:09:49.715Z,100.00
2022-08-11T02:12:26.417Z,100.00
2022-08-11T02:15:07.333Z,100.00
2022-08-11T02:17:47.721Z,100.00
2022-08-11T02:20:44.598Z,100.00
2022-08-11T02:24:03.868Z,100.00
2022-08-11T02:26:25.709Z,100.00
2022-08-11T02:29:17.969Z,100.00
2022-08-11T02:32:28.903Z,100.00
2022-08-11T02:35:26.759Z,100.00
2022-08-11T02:38:00.841Z,100.00
2022-08-11T02:40:35.892Z,100.00
2022-08-11T02:43:20.231Z,100.00
2022-08-11T02:46:00.990Z,100.00
2022-08-11T02:48:55.057Z,100.00
2022-08-11T02:51:27.657Z,100.00
2022-08-11T02:54:09.726Z,100.00
2022-08-11T02:56:58.757Z,100.00
2022-08-11T02:59:43.697Z,100.00
2022-08-11T03:02:19.338Z,100.00
2022-08-11T03:04:55.357Z,100.00
2022-08-11T03:07:31.149Z,100.00
2022-08-11T03:10:05.689Z,100.00
2022-08-11T03:13:03.152Z,100.00
2022-08-11T03:15:59.588Z,100.00
2022-08-11T03:18:49.095Z,100.00
2022-08-11T03:21:50.633Z,100.00
2022-08-11T03:24:22.385Z,100.00
2022-08-11T03:27:01.274Z,100.00
2022-08-11T03:29:37.437Z,100.00
2022-08-11T03:32:11.275Z,100.00
2022-08-11T03:34:40.756Z,100.00
2022-08-11T03:37:50.940Z,100.00
2022-08-11T03:42:01.888Z,100.00
2022-08-11T03:44:23.231Z,100.00
2022-08-11T03:47:08.443Z,100.00
2022-08-11T03:50:00.912Z,100.00
2022-08-11T03:52:53.688Z,100.00
2022-08-11T03:55:40.554Z,100.00
2022-08-11T03:58:22.350Z,100.00
2022-08-11T04:01:23.014Z,100.00
2022-08-11T04:04:13.067Z,100.00
2022-08-11T04:07:18.873Z,100.00
2022-08-11T04:10:09.930Z,100.00
2022-08-11T04:12:52.216Z,100.00
2022-08-11T04:16:12.257Z,100.00
2022-08-11T04:18:40.887Z,100.00
2022-08-11T04:21:35.349Z,100.00
2022-08-11T04:24:37.877Z,100.00
2022-08-11T04:27:36.916Z,100.00
2022-08-11T04:30:14.669Z,100.00
2022-08-11T04:32:53.634Z,100.00
2022-08-11T04:35:53.609Z,100.00
2022-08-11T04:38:33.240Z,100.00
2022-08-11T04:41:57.274Z,100.00
2022-08-11T04:44:42.752Z,100.00
2022-08-11T04:47:34.556Z,100.00
2022-08-11T04:51:08.881Z,100.00
2022-08-11T04:54:30.501Z,100.00
2022-08-11T04:57:27.831Z,100.00
2022-08-11T05:00:28.903Z,100.00
2022-08-11T05:03:26.180Z,100.00
2022-08-11T05:06:01.702Z,100.00
2022-08-11T05:08:53.492Z,100.00
2022-08-11T05:11:38.802Z,100.00
2022-08-11T05:14:30.116Z,100.00
2022-08-11T05:17:27.885Z,100.00
2022-08-11T05:20:13.537Z,100.00
2022-08-11T05:23:09.239Z,100.00
2022-08-11T05:26:43.029Z,100.00
2022-08-11T05:29:24.172Z,100.00
2022-08-11T05:32:18.775Z,100.00
2022-08-11T05:34:53.835Z,100.00
2022-08-11T05:37:29.623Z,100.00
2022-08-11T05:40:19.854Z,100.00
2022-08-11T05:43:13.146Z,100.00
2022-08-11T05:46:04.716Z,100.00
2022-08-11T05:48:55.651Z,100.00
2022-08-11T05:51:55.351Z,100.00
2022-08-11T05:54:43.036Z,100.00
2022-08-11T05:57:44.077Z,100.00
2022-08-11T06:00:14.600Z,100.00
2022-08-11T06:02:43.787Z,100.00
2022-08-11T06:05:12.282Z,100.00
2022-08-11T06:07:49.631Z,100.00
2022-08-11T06:10:33.274Z,100.00
2022-08-11T06:13:01.360Z,100.00
2022-08-11T06:15:30.412Z,100.00
2022-08-11T06:18:01.209Z,100.00
2022-08-11T06:20:32.706Z,100.00
2022-08-11T06:23:04.129Z,100.00
2022-08-11T06:25:33.417Z,100.00
2022-08-11T06:28:00.977Z,100.00
2022-08-11T06:30:36.140Z,100.00
2022-08-11T06:33:04.579Z,100.00
2022-08-11T06:35:48.968Z,100.00
2022-08-11T06:38:25.898Z,100.00
2022-08-11T06:41:25.951Z,99.89
2022-08-11T06:44:13.841Z,100.00
2022-08-11T06:46:43.895Z,100.00
2022-08-11T06:49:31.719Z,100.00
2022-08-11T06:52:04.694Z,100.00
2022-08-11T06:54:36.728Z,100.00
2022-08-11T06:57:32.133Z,100.00
2022-08-11T07:00:21.024Z,100.00
2022-08-11T07:03:08.173Z,100.00
2022-08-11T07:05:44.750Z,100.00
2022-08-11T07:08:40.404Z,100.00
2022-08-11T07:11:28.719Z,100.00
2022-08-11T07:14:17.658Z,100.00
2022-08-11T07:16:47.923Z,100.00
2022-08-11T07:19:38.189Z,100.00
2022-08-11T07:22:26.038Z,100.00
2022-08-11T07:25:19.557Z,100.00
2022-08-11T07:28:09.668Z,100.00
2022-08-11T07:30:40.313Z,100.00
2022-08-11T07:33:08.600Z,100.00
2022-08-11T07:35:42.106Z,100.00
2022-08-11T07:38:22.046Z,100.00
2022-08-11T07:40:50.647Z,100.00
2022-08-11T07:43:17.607Z,99.15
2022-08-11T07:46:04.787Z,99.48
2022-08-11T07:48:52.149Z,96.43
2022-08-11T07:51:40.917Z,98.23
2022-08-11T07:54:16.504Z,95.12
2022-08-11T07:57:07.599Z,100.00
2022-08-11T08:00:00.926Z,100.00
2022-08-11T08:03:02.475Z,100.00
2022-08-11T08:05:48.740Z,100.00
2022-08-11T08:08:34.957Z,100.00
2022-08-11T08:11:25.939Z,100.00
2022-08-11T08:14:14.171Z,98.35
2022-08-11T08:17:01.114Z,99.39
2022-08-11T08:19:29.352Z,90.88
2022-08-11T08:22:07.097Z,91.10
2022-08-11T08:24:44.157Z,94.09
2022-08-11T08:27:13.715Z,90.44
2022-08-11T08:30:01.283Z,87.37
2022-08-11T08:32:28.814Z,83.17
2022-08-11T08:34:57.418Z,81.21
2022-08-11T08:37:46.398Z,79.53
2022-08-11T08:40:14.206Z,85.56
2022-08-11T08:42:56.515Z,81.61
2022-08-11T08:45:24.808Z,85.49
2022-08-11T08:48:04.146Z,87.48
2022-08-11T08:50:53.603Z,84.92
2022-08-11T08:53:29.610Z,78.55
2022-08-11T08:55:58.296Z,77.99
2022-08-11T08:58:25.829Z,75.11
2022-08-11T09:00:54.824Z,76.53
2022-08-11T09:03:40.932Z,76.36
2022-08-11T09:06:12.249Z,73.29
2022-08-11T09:08:40.832Z,70.59
2022-08-11T09:11:26.739Z,68.12
2022-08-11T09:14:05.491Z,67.22
2022-08-11T09:16:34.881Z,67.76
2022-08-11T09:19:02.624Z,69.06
2022-08-11T09:21:48.562Z,68.68
2022-08-11T09:24:36.703Z,63.74
2022-08-11T09:27:08.264Z,62.25
2022-08-11T09:29:36.022Z,62.01
2022-08-11T09:32:03.358Z,63.32
2022-08-11T09:34:30.586Z,63.71
2022-08-11T09:37:28.287Z,61.49
2022-08-11T09:40:27.426Z,59.05
2022-08-11T09:43:14.624Z,63.18
2022-08-11T09:45:50.450Z,60.03
2022-08-11T09:48:25.245Z,62.79
2022-08-11T09:50:54.876Z,59.44
2022-08-11T09:53:36.743Z,56.63
2022-08-11T09:56:33.339Z,57.85
2022-08-11T09:59:01.487Z,58.41
2022-08-11T10:01:34.118Z,55.57
2022-08-11T10:04:06.340Z,53.77
2022-08-11T10:06:56.077Z,52.28
2022-08-11T10:09:25.177Z,51.26
2022-08-11T10:11:58.567Z,51.65
2022-08-11T10:14:46.984Z,51.19
2022-08-11T10:17:15.915Z,51.52
2022-08-11T10:19:45.423Z,49.23
2022-08-11T10:22:51.070Z,48.98
2022-08-11T10:25:36.421Z,48.29
2022-08-11T10:28:28.162Z,48.26
2022-08-11T10:31:13.747Z,47.17
2022-08-11T10:34:03.218Z,47.80
2022-08-11T10:36:32.035Z,46.97
2022-08-11T10:39:01.782Z,46.44
2022-08-11T10:42:06.491Z,45.60
2022-08-11T10:44:44.536Z,45.53
2022-08-11T10:47:32.541Z,44.17
2022-08-11T10:50:19.219Z,44.20
2022-08-11T10:53:08.459Z,44.33
2022-08-11T10:55:58.563Z,43.89
2022-08-11T10:58:45.010Z,42.95
2022-08-11T11:01:13.072Z,42.60
2022-08-11T11:03:41.248Z,42.65
2022-08-11T11:06:44.766Z,41.94
2022-08-11T11:09:16.941Z,41.16
2022-08-11T11:12:07.318Z,41.02
2022-08-11T11:14:59.049Z,40.00
2022-08-11T11:17:46.940Z,39.91
2022-08-11T11:20:37.060Z,40.19
2022-08-11T11:23:13.765Z,39.08
2022-08-11T11:26:10.223Z,39.06
2022-08-11T11:29:18.898Z,38.63
2022-08-11T11:32:18.901Z,36.81
2022-08-11T11:35:09.905Z,37.60
2022-08-11T11:37:38.048Z,37.21
2022-08-11T11:40:14.584Z,37.00
2022-08-11T11:42:44.795Z,37.30
2022-08-11T11:45:23.348Z,37.64
2022-08-11T11:47:53.795Z,37.60
2022-08-11T11:50:31.438Z,37.77
2022-08-11T11:53:01.507Z,37.44
2022-08-11T11:55:29.638Z,38.32
2022-08-11T11:58:18.889Z,38.49
2022-08-11T12:01:06.136Z,44.98
2022-08-11T12:03:35.065Z,45.20
2022-08-11T12:06:02.829Z,41.95
2022-08-11T12:08:31.176Z,41.83
2022-08-11T12:11:36.383Z,41.75
2022-08-11T12:14:10.446Z,42.05
2022-08-11T12:16:40.992Z,41.02
2022-08-11T12:19:19.108Z,39.82
2022-08-11T12:22:05.001Z,39.70
2022-08-11T12:24:52.404Z,38.43
2022-08-11T12:27:24.209Z,38.95
2022-08-11T12:30:08.461Z,38.88
2022-08-11T12:32:37.050Z,37.91
2022-08-11T12:35:05.343Z,37.51
2022-08-11T12:37:36.780Z,37.69
2022-08-11T12:40:50.030Z,36.86
2022-08-11T12:43:40.703Z,36.67
2022-08-11T12:46:11.068Z,37.02
2022-08-11T12:49:04.020Z,37.40
2022-08-11T12:52:11.572Z,38.46
2022-08-11T12:54:44.578Z,38.28
2022-08-11T12:57:37.257Z,38.50
2022-08-11T13:00:26.688Z,38.19
2022-08-11T13:03:13.670Z,38.36
2022-08-11T13:05:44.763Z,39.82
2022-08-11T13:08:15.418Z,38.81
2022-08-11T13:11:02.592Z,38.44
2022-08-11T13:13:52.390Z,38.18
2022-08-11T13:16:17.949Z,36.79
2022-08-11T13:18:45.022Z,38.30
2022-08-11T13:21:20.014Z,38.00
2022-08-11T13:24:01.032Z,37.97
2022-08-11T13:26:43.676Z,37.92
2022-08-11T13:29:25.247Z,37.86
2022-08-11T13:31:54.294Z,37.65
2022-08-11T13:34:23.977Z,37.14
2022-08-11T13:36:53.691Z,36.49
2022-08-11T13:39:24.512Z,37.74
2022-08-11T13:41:55.078Z,38.01
2022-08-11T13:44:25.911Z,37.73
2022-08-11T13:46:58.666Z,36.96
2022-08-11T13:49:27.410Z,36.67
2022-08-11T13:51:55.887Z,38.45
2022-08-11T13:54:25.907Z,37.55
2022-08-11T13:56:56.233Z,38.02
2022-08-11T13:59:30.342Z,38.07
2022-08-11T14:02:28.620Z,37.19
2022-08-11T14:05:09.669Z,36.80
2022-08-11T14:07:45.485Z,37.88
2022-08-11T14:10:15.946Z,37.66
2022-08-11T14:13:06.389Z,37.94
2022-08-11T14:15:34.901Z,37.69
2022-08-11T14:18:07.331Z,37.14
2022-08-11T14:20:58.329Z,37.56
2022-08-11T14:23:44.748Z,36.46
2022-08-11T14:26:26.846Z,37.08
2022-08-11T14:28:55.101Z,38.16
2022-08-11T14:31:28.470Z,37.66
2022-08-11T14:34:00.199Z,37.18
2022-08-11T14:36:37.340Z,36.89
2022-08-11T14:39:18.086Z,38.48
2022-08-11T14:42:13.746Z,37.82
2022-08-11T14:45:03.257Z,35.99
2022-08-11T14:47:33.947Z,35.67
2022-08-11T14:50:11.375Z,35.61
2022-08-11T14:52:52.109Z,35.98
2022-08-11T14:55:38.960Z,36.30
2022-08-11T14:58:08.672Z,36.66
2022-08-11T15:00:36.478Z,35.81
2022-08-11T15:03:12.243Z,35.89
2022-08-11T15:05:41.736Z,36.18
2022-08-11T15:08:42.925Z,35.77
2022-08-11T15:11:33.298Z,35.90
2022-08-11T15:14:02.318Z,35.88
2022-08-11T15:16:48.605Z,35.35
2022-08-11T15:19:19.484Z,35.22
2022-08-11T15:22:05.256Z,36.15
2022-08-11T15:24:36.345Z,36.32
2022-08-11T15:27:27.728Z,35.66
2022-08-11T15:30:20.892Z,34.98
2022-08-11T15:33:26.848Z,35.88
2022-08-11T15:36:14.039Z,34.97
2022-08-11T15:38:55.139Z,34.38
2022-08-11T15:41:46.435Z,34.83
2022-08-11T15:45:01.649Z,34.90
2022-08-11T15:47:37.889Z,35.43
2022-08-11T15:50:11.127Z,36.04
2022-08-11T15:52:49.101Z,35.92
2022-08-11T15:55:16.411Z,35.15
2022-08-11T15:58:04.763Z,34.81
2022-08-11T16:00:58.979Z,35.27
2022-08-11T16:04:07.435Z,34.53
2022-08-11T16:06:38.439Z,33.75
2022-08-11T16:09:18.123Z,33.63
2022-08-11T16:11:47.402Z,33.29
2022-08-11T16:14:35.001Z,33.94
2022-08-11T16:17:03.537Z,33.97
2022-08-11T16:19:36.102Z,34.58
2022-08-11T16:22:08.039Z,33.96
2022-08-11T16:27:06.117Z,34.24
2022-08-11T16:27:34.046Z,34.56
2022-08-11T16:30:01.929Z,34.89
2022-08-11T16:32:31.285Z,34.71
2022-08-11T16:35:20.080Z,34.22
2022-08-11T16:38:06.569Z,34.30
2022-08-11T16:40:34.445Z,34.67
2022-08-11T16:43:23.592Z,34.84
2022-08-11T16:46:10.412Z,34.53
2022-08-11T16:48:39.975Z,34.32
2022-08-11T16:51:10.287Z,33.86
2022-08-11T16:53:59.648Z,34.43
2022-08-11T16:56:43.907Z,34.17
2022-08-11T16:59:18.015Z,34.95
2022-08-11T17:01:59.452Z,34.02
2022-08-11T17:05:10.055Z,34.01
2022-08-11T17:08:01.250Z,33.88
2022-08-11T17:10:56.652Z,33.50
2022-08-11T17:13:36.931Z,34.18
2022-08-11T17:16:07.968Z,34.12
2022-08-11T17:18:40.131Z,34.50
2022-08-11T17:21:08.881Z,34.23
2022-08-11T17:23:47.052Z,34.91
2022-08-11T17:26:21.071Z,34.79
2022-08-11T17:28:52.640Z,35.62
2022-08-11T17:31:40.118Z,34.67
2022-08-11T17:34:26.875Z,34.96
2022-08-11T17:36:55.393Z,35.69
2022-08-11T17:39:29.086Z,35.04
2022-08-11T17:42:15.593Z,35.41
2022-08-11T17:45:02.529Z,36.55
2022-08-11T17:47:49.267Z,37.10
2022-08-11T17:50:18.292Z,37.10
2022-08-11T17:53:05.657Z,36.18
2022-08-11T17:55:57.863Z,36.93
2022-08-11T17:58:45.136Z,37.69
2022-08-11T18:01:13.133Z,37.14
2022-08-11T18:03:53.090Z,37.20
2022-08-11T18:06:33.964Z,37.44
2022-08-11T18:09:22.471Z,37.58
2022-08-11T18:12:11.810Z,38.64
2022-08-11T18:15:00.557Z,38.50
2022-08-11T18:17:45.878Z,39.75
2022-08-11T18:20:31.175Z,39.81
2022-08-11T18:23:21.432Z,40.04
2022-08-11T18:26:30.578Z,40.54
2022-08-11T18:29:17.851Z,40.82
2022-08-11T18:32:08.372Z,40.64
2022-08-11T18:34:58.938Z,41.87
2022-08-11T18:37:53.286Z,41.72
2022-08-11T18:40:43.188Z,42.28
2022-08-11T18:43:31.081Z,42.87
2022-08-11T18:46:21.231Z,43.63
2022-08-11T18:49:15.530Z,43.58
2022-08-11T18:52:05.630Z,43.97
2022-08-11T18:54:55.318Z,44.73
2022-08-11T18:57:47.033Z,44.76
2022-08-11T19:00:37.320Z,45.29
2022-08-11T19:03:24.219Z,45.09
2022-08-11T19:06:39.411Z,45.18
2022-08-11T19:09:20.280Z,46.13
2022-08-11T19:12:08.006Z,46.56
2022-08-11T19:14:54.186Z,47.76
2022-08-11T19:17:44.172Z,47.31
2022-08-11T19:20:38.130Z,47.71
2022-08-11T19:23:26.533Z,48.26
2022-08-11T19:26:12.390Z,48.50
2022-08-11T19:29:00.580Z,48.63
2022-08-11T19:31:47.956Z,49.21
2022-08-11T19:34:35.777Z,49.74
2022-08-11T19:37:25.067Z,50.38
2022-08-11T19:40:12.800Z,51.23
2022-08-11T19:43:00.083Z,51.20
2022-08-11T19:45:50.571Z,51.55
2022-08-11T19:48:40.553Z,51.86
2022-08-11T19:51:28.302Z,51.81
2022-08-11T19:54:15.118Z,52.31
2022-08-11T19:57:02.615Z,52.51
2022-08-11T19:59:49.103Z,52.63
2022-08-11T20:02:35.102Z,52.76
2022-08-11T20:05:20.883Z,52.87
2022-08-11T20:08:07.317Z,52.83
2022-08-11T20:10:54.587Z,52.89
2022-08-11T20:13:41.754Z,53.63
2022-08-11T20:16:31.294Z,53.92
2022-08-11T20:19:18.120Z,54.29
2022-08-11T20:22:09.362Z,54.83
2022-08-11T20:24:56.842Z,55.22
2022-08-11T20:27:43.487Z,55.90
2022-08-11T20:30:29.198Z,55.83
2022-08-11T20:33:15.045Z,56.74
2022-08-11T20:36:00.488Z,56.36
2022-08-11T20:38:49.779Z,55.88
2022-08-11T20:41:58.566Z,56.09
2022-08-11T20:44:44.018Z,56.36
2022-08-11T20:47:30.568Z,56.57
2022-08-11T20:50:19.461Z,56.85
2022-08-11T20:53:06.608Z,57.29
2022-08-11T20:55:53.906Z,57.29
2022-08-11T21:01:46.827Z,57.85
2022-08-11T21:04:33.375Z,56.94
2022-08-11T21:07:28.687Z,57.82
2022-08-11T21:10:23.346Z,58.37
2022-08-11T21:13:25.027Z,58.44
2022-08-11T21:16:25.618Z,59.32
2022-08-11T21:19:59.872Z,59.21
2022-08-11T21:22:31.926Z,59.92
2022-08-11T21:25:18.391Z,60.61
2022-08-11T21:28:08.382Z,60.96
2022-08-11T21:30:57.663Z,60.30
2022-08-11T21:33:46.611Z,60.58
2022-08-11T21:36:33.710Z,60.72
2022-08-11T21:39:22.856Z,61.08
2022-08-11T21:42:13.155Z,60.84
2022-08-11T21:45:00.950Z,60.14
2022-08-11T21:47:48.268Z,59.85
2022-08-11T21:50:33.384Z,60.59
2022-08-11T21:53:19.627Z,60.95
2022-08-11T21:56:05.000Z,61.36
2022-08-11T21:58:51.522Z,59.95
2022-08-11T22:01:37.450Z,60.50
2022-08-11T22:04:24.203Z,61.58
2022-08-11T22:07:10.104Z,61.42
2022-08-11T22:09:56.515Z,61.36
2022-08-11T22:12:44.911Z,61.53
2022-08-11T22:15:31.704Z,61.16
2022-08-11T22:18:19.454Z,60.74
2022-08-11T22:21:05.598Z,59.57
2022-08-11T22:23:56.379Z,60.32
2022-08-11T22:26:42.916Z,61.11
2022-08-11T22:29:50.267Z,61.93
2022-08-11T22:32:38.503Z,63.52
2022-08-11T22:35:28.588Z,62.84
2022-08-11T22:38:15.918Z,63.34
2022-08-11T22:41:01.408Z,64.74
2022-08-11T22:43:46.699Z,64.44
2022-08-11T22:46:33.943Z,64.04
2022-08-11T22:49:20.889Z,66.04
2022-08-11T22:52:08.747Z,66.52
2022-08-11T22:54:54.972Z,66.67
2022-08-11T22:57:46.529Z,67.02
2022-08-11T23:00:47.838Z,68.18
2022-08-11T23:03:37.574Z,68.08
2022-08-11T23:06:25.287Z,68.01
2022-08-11T23:09:12.383Z,66.11
2022-08-11T23:12:07.674Z,65.62
2022-08-11T23:14:57.680Z,66.59
2022-08-11T23:17:43.593Z,65.16
2022-08-11T23:20:36.559Z,67.50
2022-08-11T23:23:32.790Z,66.28
2022-08-11T23:26:20.259Z,65.20
2022-08-11T23:29:06.311Z,63.87
2022-08-11T23:31:53.960Z,68.40
2022-08-11T23:35:03.732Z,77.58
2022-08-11T23:37:47.710Z,82.37
2022-08-11T23:40:32.899Z,82.68
2022-08-11T23:43:19.772Z,82.84
2022-08-11T23:46:05.090Z,85.19
2022-08-11T23:48:51.142Z,80.29
2022-08-11T23:51:40.960Z,76.76
2022-08-11T23:54:28.498Z,75.13
2022-08-11T23:57:14.361Z,80.01
2022-08-11T23:59:59.724Z,78.40
